sensor_id;sensor_type;location;lat;lon;timestamp;P1;durP1;ratioP1;P2;durP2;ratioP2
3217;SDS011;1621;49.702;8.618;2022-07-29T05:47:51;6.80;;;3.67;;
3217;SDS011;1621;49.702;8.618;2022-07-29T05:50:22;9.10;;;3.10;;
3217;SDS011;1621;49.702;8.618;2022-07-29T05:52:52;7.03;;;3.20;;
3217;SDS011;1621;49.702;8.618;2022-07-29T05:55:21;5.50;;;3.00;;
3217;SDS011;1621;49.702;8.618;2022-07-29T05:57:47;5.77;;;3.13;;
3217;SDS011;1621;49.702;8.618;2022-07-29T06:00:13;7.43;;;3.33;;
3217;SDS011;1621;49.702;8.618;2022-07-29T06:02:40;7.00;;;3.50;;
3217;SDS011;1621;49.702;8.618;2022-07-29T06:05:08;5.47;;;3.10;;
3217;SDS011;1621;49.702;8.618;2022-07-29T06:07:34;6.07;;;3.17;;
3217;SDS011;1621;49.702;8.618;2022-07-29T06:10:00;6.90;;;3.13;;
3217;SDS011;1621;49.702;8.618;2022-07-29T06:12:27;5.03;;;3.07;;
3217;SDS011;1621;49.702;8.618;2022-07-29T06:14:53;9.33;;;3.90;;
3217;SDS011;1621;49.702;8.618;2022-07-29T06:17:19;11.20;;;3.43;;
3217;SDS011;1621;49.702;8.618;2022-07-29T06:19:46;6.30;;;3.37;;
3217;SDS011;1621;49.702;8.618;2022-07-29T06:22:14;5.63;;;3.17;;
3217;SDS011;1621;49.702;8.618;2022-07-29T06:24:40;5.30;;;3.10;;
3217;SDS011;1621;49.702;8.618;2022-07-29T06:27:08;7.17;;;3.30;;
3217;SDS011;1621;49.702;8.618;2022-07-29T06:29:35;6.27;;;4.13;;
3217;SDS011;1621;49.702;8.618;2022-07-29T06:32:01;4.80;;;3.20;;
3217;SDS011;1621;49.702;8.618;2022-07-29T06:34:27;8.67;;;4.03;;
3217;SDS011;1621;49.702;8.618;2022-07-29T06:36:54;7.43;;;3.10;;
3217;SDS011;1621;49.702;8.618;2022-07-29T06:39:21;8.07;;;3.43;;
3217;SDS011;1621;49.702;8.618;2022-07-29T06:41:48;5.67;;;3.23;;
3217;SDS011;1621;49.702;8.618;2022-07-29T06:44:15;8.20;;;3.50;;
3217;SDS011;1621;49.702;8.618;2022-07-29T06:46:41;13.70;;;3.43;;
3217;SDS011;1621;49.702;8.618;2022-07-29T06:49:08;8.27;;;3.40;;
3217;SDS011;1621;49.702;8.618;2022-07-29T06:51:35;10.83;;;3.70;;
3217;SDS011;1621;49.702;8.618;2022-07-29T06:54:02;4.60;;;3.30;;
3217;SDS011;1621;49.702;8.618;2022-07-29T06:56:33;6.77;;;3.30;;
3217;SDS011;1621;49.702;8.618;2022-07-29T06:59:00;9.00;;;3.27;;
3217;SDS011;1621;49.702;8.618;2022-07-29T07:01:26;5.90;;;3.40;;
3217;SDS011;1621;49.702;8.618;2022-07-29T07:03:53;4.60;;;3.07;;
3217;SDS011;1621;49.702;8.618;2022-07-29T07:06:19;3.63;;;2.80;;
3217;SDS011;1621;49.702;8.618;2022-07-29T07:08:45;8.23;;;3.60;;
3217;SDS011;1621;49.702;8.618;2022-07-29T07:11:12;4.73;;;3.20;;
3217;SDS011;1621;49.702;8.618;2022-07-29T07:13:41;6.97;;;3.30;;
3217;SDS011;1621;49.702;8.618;2022-07-29T07:16:07;6.63;;;3.47;;
3217;SDS011;1621;49.702;8.618;2022-07-29T07:18:33;5.47;;;3.63;;
3217;SDS011;1621;49.702;8.618;2022-07-29T07:20:59;7.00;;;3.13;;
3217;SDS011;1621;49.702;8.618;2022-07-29T07:23:26;4.93;;;3.33;;
3217;SDS011;1621;49.702;8.618;2022-07-29T07:25:52;9.07;;;3.53;;
3217;SDS011;1621;49.702;8.618;2022-07-29T07:28:18;6.50;;;3.70;;
3217;SDS011;1621;49.702;8.618;2022-07-29T07:30:46;6.37;;;3.70;;
3217;SDS011;1621;49.702;8.618;2022-07-29T07:33:12;3.53;;;2.90;;
3217;SDS011;1621;49.702;8.618;2022-07-29T07:35:39;7.27;;;3.50;;
3217;SDS011;1621;49.702;8.618;2022-07-29T07:38:05;5.90;;;3.57;;
3217;SDS011;1621;49.702;8.618;2022-07-29T07:40:34;6.03;;;3.40;;
3217;SDS011;1621;49.702;8.618;2022-07-29T07:43:07;5.00;;;3.53;;
3217;SDS011;1621;49.702;8.618;2022-07-29T07:45:33;4.83;;;3.63;;
3217;SDS011;1621;49.702;8.618;2022-07-29T07:48:03;4.80;;;3.87;;
3217;SDS011;1621;49.702;8.618;2022-07-29T07:50:29;6.70;;;4.20;;
3217;SDS011;1621;49.702;8.618;2022-07-29T07:53:01;7.30;;;3.90;;
3217;SDS011;1621;49.702;8.618;2022-07-29T07:55:30;4.90;;;3.93;;
3217;SDS011;1621;49.702;8.618;2022-07-29T07:57:56;7.33;;;4.23;;
3217;SDS011;1621;49.702;8.618;2022-07-29T08:00:22;5.27;;;4.33;;
3217;SDS011;1621;49.702;8.618;2022-07-29T08:02:49;7.10;;;4.10;;
3217;SDS011;1621;49.702;8.618;2022-07-29T08:05:17;4.47;;;3.37;;
3217;SDS011;1621;49.702;8.618;2022-07-29T08:07:44;5.40;;;3.97;;
3217;SDS011;1621;49.702;8.618;2022-07-29T08:10:10;7.07;;;3.63;;
3217;SDS011;1621;49.702;8.618;2022-07-29T08:12:37;9.80;;;3.27;;
3217;SDS011;1621;49.702;8.618;2022-07-29T08:15:03;3.83;;;3.40;;
3217;SDS011;1621;49.702;8.618;2022-07-29T08:17:32;6.87;;;4.43;;
3217;SDS011;1621;49.702;8.618;2022-07-29T08:19:58;5.93;;;3.90;;
3217;SDS011;1621;49.702;8.618;2022-07-29T08:22:26;7.50;;;4.27;;
3217;SDS011;1621;49.702;8.618;2022-07-29T08:24:52;8.87;;;3.80;;
3217;SDS011;1621;49.702;8.618;2022-07-29T08:27:19;5.13;;;4.07;;
3217;SDS011;1621;49.702;8.618;2022-07-29T08:29:46;6.80;;;4.77;;
3217;SDS011;1621;49.702;8.618;2022-07-29T08:32:12;5.60;;;3.93;;
3217;SDS011;1621;49.702;8.618;2022-07-29T08:34:38;4.23;;;3.83;;
3217;SDS011;1621;49.702;8.618;2022-07-29T08:37:04;7.50;;;4.13;;
3217;SDS011;1621;49.702;8.618;2022-07-29T08:39:32;6.10;;;3.60;;
3217;SDS011;1621;49.702;8.618;2022-07-29T08:41:58;8.40;;;4.50;;
3217;SDS011;1621;49.702;8.618;2022-07-29T08:44:25;10.47;;;4.53;;
3217;SDS011;1621;49.702;8.618;2022-07-29T08:46:51;10.27;;;4.50;;
3217;SDS011;1621;49.702;8.618;2022-07-29T08:49:18;4.43;;;3.63;;
3217;SDS011;1621;49.702;8.618;2022-07-29T08:51:44;4.73;;;4.00;;
3217;SDS011;1621;49.702;8.618;2022-07-29T08:54:11;4.67;;;3.67;;
3217;SDS011;1621;49.702;8.618;2022-07-29T08:56:41;6.13;;;3.97;;
3217;SDS011;1621;49.702;8.618;2022-07-29T08:59:08;4.53;;;3.40;;
3217;SDS011;1621;49.702;8.618;2022-07-29T09:01:34;5.80;;;4.13;;
3217;SDS011;1621;49.702;8.618;2022-07-29T09:04:03;6.77;;;4.00;;
3217;SDS011;1621;49.702;8.618;2022-07-29T09:06:30;7.83;;;4.03;;
3217;SDS011;1621;49.702;8.618;2022-07-29T09:08:58;10.40;;;4.60;;
3217;SDS011;1621;49.702;8.618;2022-07-29T09:11:24;5.60;;;4.37;;
3217;SDS011;1621;49.702;8.618;2022-07-29T09:13:52;8.30;;;4.57;;
3217;SDS011;1621;49.702;8.618;2022-07-29T09:16:19;6.33;;;4.20;;
3217;SDS011;1621;49.702;8.618;2022-07-29T09:18:45;8.07;;;4.43;;
3217;SDS011;1621;49.702;8.618;2022-07-29T09:21:13;6.27;;;5.00;;
3217;SDS011;1621;49.702;8.618;2022-07-29T09:24:01;6.20;;;3.93;;
3217;SDS011;1621;49.702;8.618;2022-07-29T09:26:28;12.17;;;4.17;;
3217;SDS011;1621;49.702;8.618;2022-07-29T09:28:56;6.63;;;4.40;;
3217;SDS011;1621;49.702;8.618;2022-07-29T09:31:26;6.07;;;4.40;;
3217;SDS011;1621;49.702;8.618;2022-07-29T09:33:57;6.20;;;4.47;;
3217;SDS011;1621;49.702;8.618;2022-07-29T09:36:25;5.90;;;4.50;;
3217;SDS011;1621;49.702;8.618;2022-07-29T09:38:56;6.70;;;4.03;;
3217;SDS011;1621;49.702;8.618;2022-07-29T09:41:22;6.27;;;3.90;;
3217;SDS011;1621;49.702;8.618;2022-07-29T09:43:53;6.57;;;4.17;;
3217;SDS011;1621;49.702;8.618;2022-07-29T09:46:20;7.33;;;4.20;;
3217;SDS011;1621;49.702;8.618;2022-07-29T09:48:50;5.20;;;4.70;;
3217;SDS011;1621;49.702;8.618;2022-07-29T09:51:31;5.57;;;4.80;;
3217;SDS011;1621;49.702;8.618;2022-07-29T09:53:57;10.07;;;4.00;;
3217;SDS011;1621;49.702;8.618;2022-07-29T09:56:37;7.90;;;4.40;;
3217;SDS011;1621;49.702;8.618;2022-07-29T09:59:05;7.37;;;4.97;;
3217;SDS011;1621;49.702;8.618;2022-07-29T10:01:32;6.40;;;3.50;;
3217;SDS011;1621;49.702;8.618;2022-07-29T10:03:59;9.80;;;4.33;;
3217;SDS011;1621;49.702;8.618;2022-07-29T10:06:25;5.57;;;4.27;;
3217;SDS011;1621;49.702;8.618;2022-07-29T10:08:51;6.43;;;4.13;;
3217;SDS011;1621;49.702;8.618;2022-07-29T10:11:18;6.80;;;4.07;;
3217;SDS011;1621;49.702;8.618;2022-07-29T10:13:45;7.67;;;4.40;;
3217;SDS011;1621;49.702;8.618;2022-07-29T10:16:12;5.40;;;4.47;;
3217;SDS011;1621;49.702;8.618;2022-07-29T10:18:41;5.13;;;4.63;;
3217;SDS011;1621;49.702;8.618;2022-07-29T10:21:08;4.70;;;3.73;;
3217;SDS011;1621;49.702;8.618;2022-07-29T10:23:35;5.73;;;4.63;;
3217;SDS011;1621;49.702;8.618;2022-07-29T10:26:02;6.33;;;4.60;;
3217;SDS011;1621;49.702;8.618;2022-07-29T10:28:29;4.97;;;4.00;;
3217;SDS011;1621;49.702;8.618;2022-07-29T10:30:58;5.10;;;3.93;;
3217;SDS011;1621;49.702;8.618;2022-07-29T10:33:30;5.63;;;4.20;;
3217;SDS011;1621;49.702;8.618;2022-07-29T10:36:04;11.43;;;4.67;;
3217;SDS011;1621;49.702;8.618;2022-07-29T10:38:36;4.50;;;4.10;;
3217;SDS011;1621;49.702;8.618;2022-07-29T10:41:18;7.93;;;4.30;;
3217;SDS011;1621;49.702;8.618;2022-07-29T10:43:53;6.60;;;4.40;;
3217;SDS011;1621;49.702;8.618;2022-07-29T10:46:20;9.10;;;4.43;;
3217;SDS011;1621;49.702;8.618;2022-07-29T10:54:14;7.90;;;4.73;;
3217;SDS011;1621;49.702;8.618;2022-07-29T10:56:43;7.30;;;3.93;;
3217;SDS011;1621;49.702;8.618;2022-07-29T11:05:13;5.20;;;4.40;;
3217;SDS011;1621;49.702;8.618;2022-07-29T11:10:31;5.60;;;4.40;;
3217;SDS011;1621;49.702;8.618;2022-07-29T11:12:57;5.87;;;4.53;;
3217;SDS011;1621;49.702;8.618;2022-07-29T11:15:24;7.10;;;4.23;;
3217;SDS011;1621;49.702;8.618;2022-07-29T11:18:03;5.87;;;4.33;;
3217;SDS011;1621;49.702;8.618;2022-07-29T11:20:33;5.40;;;3.77;;
3217;SDS011;1621;49.702;8.618;2022-07-29T11:23:00;7.67;;;4.33;;
3217;SDS011;1621;49.702;8.618;2022-07-29T11:25:27;11.63;;;4.83;;
3217;SDS011;1621;49.702;8.618;2022-07-29T11:28:09;6.23;;;3.90;;
3217;SDS011;1621;49.702;8.618;2022-07-29T11:30:49;8.80;;;4.40;;
3217;SDS011;1621;49.702;8.618;2022-07-29T11:33:28;4.63;;;4.10;;
3217;SDS011;1621;49.702;8.618;2022-07-29T11:36:07;11.53;;;4.87;;
3217;SDS011;1621;49.702;8.618;2022-07-29T11:38:34;9.83;;;4.87;;
3217;SDS011;1621;49.702;8.618;2022-07-29T11:43:49;8.27;;;4.60;;
3217;SDS011;1621;49.702;8.618;2022-07-29T11:46:16;7.60;;;5.07;;
3217;SDS011;1621;49.702;8.618;2022-07-29T11:48:43;11.50;;;4.77;;
3217;SDS011;1621;49.702;8.618;2022-07-29T11:51:09;4.97;;;4.20;;
3217;SDS011;1621;49.702;8.618;2022-07-29T11:53:36;8.50;;;4.53;;
3217;SDS011;1621;49.702;8.618;2022-07-29T11:56:03;5.30;;;4.47;;
3217;SDS011;1621;49.702;8.618;2022-07-29T11:58:30;7.40;;;4.57;;
3217;SDS011;1621;49.702;8.618;2022-07-29T12:00:57;8.87;;;4.53;;
3217;SDS011;1621;49.702;8.618;2022-07-29T12:03:25;8.30;;;4.10;;
3217;SDS011;1621;49.702;8.618;2022-07-29T12:05:51;5.67;;;4.80;;
3217;SDS011;1621;49.702;8.618;2022-07-29T12:08:18;11.67;;;4.90;;
3217;SDS011;1621;49.702;8.618;2022-07-29T12:10:46;6.60;;;4.60;;
3217;SDS011;1621;49.702;8.618;2022-07-29T12:13:14;6.20;;;4.57;;
3217;SDS011;1621;49.702;8.618;2022-07-29T12:15:40;7.40;;;4.63;;
3217;SDS011;1621;49.702;8.618;2022-07-29T12:18:10;9.83;;;4.80;;
3217;SDS011;1621;49.702;8.618;2022-07-29T12:20:37;6.73;;;4.40;;
3217;SDS011;1621;49.702;8.618;2022-07-29T12:23:04;8.93;;;4.30;;
3217;SDS011;1621;49.702;8.618;2022-07-29T12:25:32;5.57;;;4.20;;
3217;SDS011;1621;49.702;8.618;2022-07-29T12:27:59;8.97;;;4.73;;
3217;SDS011;1621;49.702;8.618;2022-07-29T12:30:34;4.80;;;3.87;;
3217;SDS011;1621;49.702;8.618;2022-07-29T12:33:00;9.00;;;4.70;;
3217;SDS011;1621;49.702;8.618;2022-07-29T12:35:28;8.27;;;3.80;;
3217;SDS011;1621;49.702;8.618;2022-07-29T12:37:54;8.60;;;4.70;;
3217;SDS011;1621;49.702;8.618;2022-07-29T12:40:20;4.97;;;4.00;;
3217;SDS011;1621;49.702;8.618;2022-07-29T12:45:29;6.27;;;4.50;;
3217;SDS011;1621;49.702;8.618;2022-07-29T12:47:55;7.27;;;4.10;;
3217;SDS011;1621;49.702;8.618;2022-07-29T12:50:22;6.20;;;4.53;;
3217;SDS011;1621;49.702;8.618;2022-07-29T12:52:51;4.53;;;3.80;;
3217;SDS011;1621;49.702;8.618;2022-07-29T12:57:58;4.63;;;4.07;;
3217;SDS011;1621;49.702;8.618;2022-07-29T13:00:24;5.53;;;3.53;;
3217;SDS011;1621;49.702;8.618;2022-07-29T13:02:54;3.23;;;2.90;;
3217;SDS011;1621;49.702;8.618;2022-07-29T13:05:20;7.33;;;3.77;;
3217;SDS011;1621;49.702;8.618;2022-07-29T13:07:47;5.70;;;3.33;;
3217;SDS011;1621;49.702;8.618;2022-07-29T13:10:17;6.43;;;3.83;;
3217;SDS011;1621;49.702;8.618;2022-07-29T13:13:03;5.37;;;3.27;;
3217;SDS011;1621;49.702;8.618;2022-07-29T13:15:30;4.80;;;3.53;;
3217;SDS011;1621;49.702;8.618;2022-07-29T13:17:57;6.03;;;3.10;;
3217;SDS011;1621;49.702;8.618;2022-07-29T13:20:23;4.23;;;3.23;;
3217;SDS011;1621;49.702;8.618;2022-07-29T13:22:50;8.07;;;3.10;;
3217;SDS011;1621;49.702;8.618;2022-07-29T13:25:24;5.37;;;2.93;;
3217;SDS011;1621;49.702;8.618;2022-07-29T13:27:50;6.10;;;3.67;;
3217;SDS011;1621;49.702;8.618;2022-07-29T13:30:19;5.30;;;2.93;;
3217;SDS011;1621;49.702;8.618;2022-07-29T13:32:45;3.97;;;3.03;;
3217;SDS011;1621;49.702;8.618;2022-07-29T13:35:12;4.80;;;3.50;;
3217;SDS011;1621;49.702;8.618;2022-07-29T13:37:38;7.17;;;4.33;;
3217;SDS011;1621;49.702;8.618;2022-07-29T13:40:05;9.07;;;4.00;;
3217;SDS011;1621;49.702;8.618;2022-07-29T13:42:33;4.17;;;3.00;;
3217;SDS011;1621;49.702;8.618;2022-07-29T13:44:59;4.17;;;2.97;;
3217;SDS011;1621;49.702;8.618;2022-07-29T13:47:26;5.07;;;3.50;;
3217;SDS011;1621;49.702;8.618;2022-07-29T13:49:53;7.10;;;3.20;;
3217;SDS011;1621;49.702;8.618;2022-07-29T13:52:19;4.67;;;3.43;;
3217;SDS011;1621;49.702;8.618;2022-07-29T13:54:46;4.97;;;3.07;;
3217;SDS011;1621;49.702;8.618;2022-07-29T13:57:12;5.27;;;3.70;;
3217;SDS011;1621;49.702;8.618;2022-07-29T13:59:40;4.40;;;3.23;;
3217;SDS011;1621;49.702;8.618;2022-07-29T14:02:08;8.87;;;3.60;;
3217;SDS011;1621;49.702;8.618;2022-07-29T14:04:34;9.73;;;3.20;;
3217;SDS011;1621;49.702;8.618;2022-07-29T14:07:01;4.80;;;3.73;;
3217;SDS011;1621;49.702;8.618;2022-07-29T14:09:27;5.80;;;3.17;;
3217;SDS011;1621;49.702;8.618;2022-07-29T14:11:53;4.20;;;3.30;;
3217;SDS011;1621;49.702;8.618;2022-07-29T14:14:20;4.93;;;3.37;;
3217;SDS011;1621;49.702;8.618;2022-07-29T14:16:47;5.50;;;3.73;;
3217;SDS011;1621;49.702;8.618;2022-07-29T14:19:14;4.83;;;3.30;;
3217;SDS011;1621;49.702;8.618;2022-07-29T14:21:40;4.00;;;3.10;;
3217;SDS011;1621;49.702;8.618;2022-07-29T14:24:06;4.27;;;3.87;;
3217;SDS011;1621;49.702;8.618;2022-07-29T14:26:33;4.27;;;3.43;;
3217;SDS011;1621;49.702;8.618;2022-07-29T14:28:59;9.33;;;3.63;;
3217;SDS011;1621;49.702;8.618;2022-07-29T14:31:25;5.50;;;3.60;;
3217;SDS011;1621;49.702;8.618;2022-07-29T14:33:53;4.27;;;3.60;;
3217;SDS011;1621;49.702;8.618;2022-07-29T14:36:19;5.40;;;3.90;;
3217;SDS011;1621;49.702;8.618;2022-07-29T14:38:45;5.90;;;3.53;;
3217;SDS011;1621;49.702;8.618;2022-07-29T14:41:11;9.07;;;3.70;;
3217;SDS011;1621;49.702;8.618;2022-07-29T14:43:38;4.30;;;3.70;;
3217;SDS011;1621;49.702;8.618;2022-07-29T14:46:04;4.33;;;3.20;;
3217;SDS011;1621;49.702;8.618;2022-07-29T14:48:32;6.10;;;4.00;;
3217;SDS011;1621;49.702;8.618;2022-07-29T14:50:59;3.57;;;3.20;;
3217;SDS011;1621;49.702;8.618;2022-07-29T14:53:25;8.37;;;3.20;;
3217;SDS011;1621;49.702;8.618;2022-07-29T14:55:52;5.83;;;3.10;;
3217;SDS011;1621;49.702;8.618;2022-07-29T14:58:18;6.60;;;3.37;;
3217;SDS011;1621;49.702;8.618;2022-07-29T15:00:46;5.23;;;3.23;;
3217;SDS011;1621;49.702;8.618;2022-07-29T15:03:12;6.07;;;3.60;;
3217;SDS011;1621;49.702;8.618;2022-07-29T15:05:38;4.93;;;3.53;;
3217;SDS011;1621;49.702;8.618;2022-07-29T15:08:06;6.20;;;3.30;;
3217;SDS011;1621;49.702;8.618;2022-07-29T15:10:33;5.93;;;3.37;;
3217;SDS011;1621;49.702;8.618;2022-07-29T15:13:00;4.17;;;3.20;;
3217;SDS011;1621;49.702;8.618;2022-07-29T15:15:26;5.10;;;3.33;;
3217;SDS011;1621;49.702;8.618;2022-07-29T15:17:52;6.10;;;3.20;;
3217;SDS011;1621;49.702;8.618;2022-07-29T15:20:18;4.87;;;3.43;;
3217;SDS011;1621;49.702;8.618;2022-07-29T15:22:46;5.13;;;3.20;;
3217;SDS011;1621;49.702;8.618;2022-07-29T15:25:13;6.47;;;3.33;;
3217;SDS011;1621;49.702;8.618;2022-07-29T15:27:40;4.10;;;3.30;;
3217;SDS011;1621;49.702;8.618;2022-07-29T15:30:07;8.10;;;3.40;;
3217;SDS011;1621;49.702;8.618;2022-07-29T15:32:33;6.20;;;3.37;;
3217;SDS011;1621;49.702;8.618;2022-07-29T15:34:59;4.27;;;3.33;;
3217;SDS011;1621;49.702;8.618;2022-07-29T15:37:26;5.97;;;3.10;;
3217;SDS011;1621;49.702;8.618;2022-07-29T15:39:53;5.47;;;3.27;;
3217;SDS011;1621;49.702;8.618;2022-07-29T15:42:20;7.23;;;3.10;;
3217;SDS011;1621;49.702;8.618;2022-07-29T15:44:47;3.97;;;3.20;;
3217;SDS011;1621;49.702;8.618;2022-07-29T15:47:13;4.77;;;3.40;;
3217;SDS011;1621;49.702;8.618;2022-07-29T15:49:39;4.53;;;3.63;;
3217;SDS011;1621;49.702;8.618;2022-07-29T15:52:06;5.30;;;2.93;;
3217;SDS011;1621;49.702;8.618;2022-07-29T15:54:34;3.43;;;3.10;;
3217;SDS011;1621;49.702;8.618;2022-07-29T15:57:00;6.10;;;3.40;;
3217;SDS011;1621;49.702;8.618;2022-07-29T15:59:28;6.37;;;3.40;;
3217;SDS011;1621;49.702;8.618;2022-07-29T16:01:54;11.07;;;3.60;;
3217;SDS011;1621;49.702;8.618;2022-07-29T16:04:21;4.00;;;3.50;;
3217;SDS011;1621;49.702;8.618;2022-07-29T16:06:48;6.17;;;4.37;;
3217;SDS011;1621;49.702;8.618;2022-07-29T16:09:14;4.37;;;3.30;;
3217;SDS011;1621;49.702;8.618;2022-07-29T16:11:41;7.00;;;4.20;;
3217;SDS011;1621;49.702;8.618;2022-07-29T16:14:07;6.13;;;3.00;;
3217;SDS011;1621;49.702;8.618;2022-07-29T16:16:36;6.67;;;4.70;;
3217;SDS011;1621;49.702;8.618;2022-07-29T16:19:03;4.30;;;3.70;;
3217;SDS011;1621;49.702;8.618;2022-07-29T16:21:30;6.20;;;4.40;;
3217;SDS011;1621;49.702;8.618;2022-07-29T16:23:56;4.10;;;3.00;;
3217;SDS011;1621;49.702;8.618;2022-07-29T16:26:23;3.80;;;3.10;;
3217;SDS011;1621;49.702;8.618;2022-07-29T16:28:49;5.37;;;3.80;;
3217;SDS011;1621;49.702;8.618;2022-07-29T16:31:15;8.53;;;4.30;;
3217;SDS011;1621;49.702;8.618;2022-07-29T16:33:43;6.50;;;3.60;;
3217;SDS011;1621;49.702;8.618;2022-07-29T16:36:09;5.50;;;3.13;;
3217;SDS011;1621;49.702;8.618;2022-07-29T16:38:36;5.07;;;3.10;;
3217;SDS011;1621;49.702;8.618;2022-07-29T16:41:02;3.77;;;3.20;;
3217;SDS011;1621;49.702;8.618;2022-07-29T16:43:28;4.13;;;3.33;;
3217;SDS011;1621;49.702;8.618;2022-07-29T16:45:54;6.10;;;3.30;;
3217;SDS011;1621;49.702;8.618;2022-07-29T16:48:21;4.00;;;3.60;;
3217;SDS011;1621;49.702;8.618;2022-07-29T16:50:48;4.07;;;3.00;;
3217;SDS011;1621;49.702;8.618;2022-07-29T16:53:15;4.17;;;3.10;;
3217;SDS011;1621;49.702;8.618;2022-07-29T16:55:41;5.13;;;3.57;;
3217;SDS011;1621;49.702;8.618;2022-07-29T16:58:07;4.10;;;3.30;;
3217;SDS011;1621;49.702;8.618;2022-07-29T17:00:33;3.80;;;3.40;;
3217;SDS011;1621;49.702;8.618;2022-07-29T17:03:00;7.70;;;3.40;;
3217;SDS011;1621;49.702;8.618;2022-07-29T17:05:26;6.17;;;3.30;;
3217;SDS011;1621;49.702;8.618;2022-07-29T17:07:54;6.77;;;3.13;;
3217;SDS011;1621;49.702;8.618;2022-07-29T17:10:22;4.83;;;3.03;;
3217;SDS011;1621;49.702;8.618;2022-07-29T17:12:48;4.07;;;3.10;;
3217;SDS011;1621;49.702;8.618;2022-07-29T17:15:15;3.83;;;3.33;;
3217;SDS011;1621;49.702;8.618;2022-07-29T17:17:42;3.73;;;2.90;;
3217;SDS011;1621;49.702;8.618;2022-07-29T17:20:09;5.70;;;3.40;;
3217;SDS011;1621;49.702;8.618;2022-07-29T17:22:36;3.53;;;3.10;;
3217;SDS011;1621;49.702;8.618;2022-07-29T17:25:04;5.13;;;3.60;;
3217;SDS011;1621;49.702;8.618;2022-07-29T17:27:30;5.10;;;3.50;;
3217;SDS011;1621;49.702;8.618;2022-07-29T17:29:57;5.13;;;3.00;;
3217;SDS011;1621;49.702;8.618;2022-07-29T17:32:23;4.67;;;3.30;;
3217;SDS011;1621;49.702;8.618;2022-07-29T17:34:49;4.40;;;3.00;;
3217;SDS011;1621;49.702;8.618;2022-07-29T17:37:16;12.30;;;4.27;;
3217;SDS011;1621;49.702;8.618;2022-07-29T17:39:42;4.57;;;3.60;;
3217;SDS011;1621;49.702;8.618;2022-07-29T17:42:10;3.97;;;3.00;;
3217;SDS011;1621;49.702;8.618;2022-07-29T17:44:36;4.87;;;3.30;;
3217;SDS011;1621;49.702;8.618;2022-07-29T17:47:03;3.47;;;2.90;;
3217;SDS011;1621;49.702;8.618;2022-07-29T17:49:30;3.37;;;2.80;;
3217;SDS011;1621;49.702;8.618;2022-07-29T17:51:56;4.10;;;3.63;;
3217;SDS011;1621;49.702;8.618;2022-07-29T17:54:22;3.60;;;3.30;;
3217;SDS011;1621;49.702;8.618;2022-07-29T17:56:48;5.90;;;3.13;;
3217;SDS011;1621;49.702;8.618;2022-07-29T17:59:16;6.47;;;3.30;;
3217;SDS011;1621;49.702;8.618;2022-07-29T18:01:42;5.40;;;3.33;;
3217;SDS011;1621;49.702;8.618;2022-07-29T18:04:09;4.87;;;3.43;;
3217;SDS011;1621;49.702;8.618;2022-07-29T18:06:35;5.53;;;3.70;;
3217;SDS011;1621;49.702;8.618;2022-07-29T18:09:02;5.50;;;3.73;;
3217;SDS011;1621;49.702;8.618;2022-07-29T18:11:28;4.13;;;3.40;;
3217;SDS011;1621;49.702;8.618;2022-07-29T18:13:56;6.30;;;3.60;;
3217;SDS011;1621;49.702;8.618;2022-07-29T18:16:24;5.50;;;4.00;;
3217;SDS011;1621;49.702;8.618;2022-07-29T18:18:50;4.67;;;3.50;;
3217;SDS011;1621;49.702;8.618;2022-07-29T18:21:16;4.53;;;3.47;;
3217;SDS011;1621;49.702;8.618;2022-07-29T18:23:42;4.37;;;3.97;;
3217;SDS011;1621;49.702;8.618;2022-07-29T18:26:14;11.13;;;4.10;;
3217;SDS011;1621;49.702;8.618;2022-07-29T18:28:40;5.13;;;3.70;;
3217;SDS011;1621;49.702;8.618;2022-07-29T18:31:06;5.00;;;3.57;;
3217;SDS011;1621;49.702;8.618;2022-07-29T18:33:34;4.47;;;3.73;;
3217;SDS011;1621;49.702;8.618;2022-07-29T18:36:00;5.43;;;4.07;;
3217;SDS011;1621;49.702;8.618;2022-07-29T18:38:27;4.20;;;3.60;;
3217;SDS011;1621;49.702;8.618;2022-07-29T18:40:53;7.23;;;4.07;;
3217;SDS011;1621;49.702;8.618;2022-07-29T18:43:20;5.10;;;3.50;;
3217;SDS011;1621;49.702;8.618;2022-07-29T18:45:46;6.63;;;3.37;;
3217;SDS011;1621;49.702;8.618;2022-07-29T18:48:13;5.07;;;3.33;;
3217;SDS011;1621;49.702;8.618;2022-07-29T18:50:41;5.17;;;3.77;;
3217;SDS011;1621;49.702;8.618;2022-07-29T18:53:07;4.40;;;3.47;;
3217;SDS011;1621;49.702;8.618;2022-07-29T18:55:33;5.80;;;3.60;;
3217;SDS011;1621;49.702;8.618;2022-07-29T18:58:02;4.90;;;3.80;;
3217;SDS011;1621;49.702;8.618;2022-07-29T19:00:29;5.50;;;3.57;;
3217;SDS011;1621;49.702;8.618;2022-07-29T19:02:55;5.60;;;3.90;;
3217;SDS011;1621;49.702;8.618;2022-07-29T19:05:21;9.97;;;3.83;;
3217;SDS011;1621;49.702;8.618;2022-07-29T19:07:49;5.73;;;4.03;;
3217;SDS011;1621;49.702;8.618;2022-07-29T19:10:15;3.97;;;3.57;;
3217;SDS011;1621;49.702;8.618;2022-07-29T19:12:41;4.23;;;3.53;;
3217;SDS011;1621;49.702;8.618;2022-07-29T19:15:08;4.90;;;3.67;;
3217;SDS011;1621;49.702;8.618;2022-07-29T19:17:35;6.23;;;3.50;;
3217;SDS011;1621;49.702;8.618;2022-07-29T19:20:02;3.93;;;3.53;;
3217;SDS011;1621;49.702;8.618;2022-07-29T19:22:31;4.13;;;3.73;;
3217;SDS011;1621;49.702;8.618;2022-07-29T19:24:59;6.70;;;4.03;;
3217;SDS011;1621;49.702;8.618;2022-07-29T19:27:25;4.63;;;3.27;;
3217;SDS011;1621;49.702;8.618;2022-07-29T19:29:52;4.30;;;3.50;;
3217;SDS011;1621;49.702;8.618;2022-07-29T19:32:18;4.77;;;4.27;;
3217;SDS011;1621;49.702;8.618;2022-07-29T19:34:46;9.20;;;3.70;;
3217;SDS011;1621;49.702;8.618;2022-07-29T19:37:32;6.10;;;4.20;;
3217;SDS011;1621;49.702;8.618;2022-07-29T19:39:59;5.30;;;4.33;;
3217;SDS011;1621;49.702;8.618;2022-07-29T19:42:26;6.40;;;3.70;;
3217;SDS011;1621;49.702;8.618;2022-07-29T19:44:52;4.40;;;3.77;;
3217;SDS011;1621;49.702;8.618;2022-07-29T19:47:19;5.17;;;3.70;;
3217;SDS011;1621;49.702;8.618;2022-07-29T19:49:45;5.53;;;4.10;;
3217;SDS011;1621;49.702;8.618;2022-07-29T19:52:11;3.80;;;3.40;;
3217;SDS011;1621;49.702;8.618;2022-07-29T19:54:37;7.13;;;3.70;;
3217;SDS011;1621;49.702;8.618;2022-07-29T19:57:05;4.00;;;3.47;;
3217;SDS011;1621;49.702;8.618;2022-07-29T19:59:31;4.30;;;3.90;;
3217;SDS011;1621;49.702;8.618;2022-07-29T20:01:58;5.40;;;3.90;;
3217;SDS011;1621;49.702;8.618;2022-07-29T20:04:24;4.73;;;4.10;;
3217;SDS011;1621;49.702;8.618;2022-07-29T20:06:51;3.87;;;3.50;;
3217;SDS011;1621;49.702;8.618;2022-07-29T20:09:20;4.57;;;3.90;;
3217;SDS011;1621;49.702;8.618;2022-07-29T20:11:46;7.00;;;4.17;;
3217;SDS011;1621;49.702;8.618;2022-07-29T20:14:14;5.90;;;3.87;;
3217;SDS011;1621;49.702;8.618;2022-07-29T20:16:42;5.70;;;3.53;;
3217;SDS011;1621;49.702;8.618;2022-07-29T20:19:09;7.00;;;4.00;;
3217;SDS011;1621;49.702;8.618;2022-07-29T20:21:35;6.37;;;4.00;;
3217;SDS011;1621;49.702;8.618;2022-07-29T20:24:02;5.07;;;4.03;;
3217;SDS011;1621;49.702;8.618;2022-07-29T20:26:28;6.60;;;4.10;;
3217;SDS011;1621;49.702;8.618;2022-07-29T20:28:55;6.73;;;3.80;;
3217;SDS011;1621;49.702;8.618;2022-07-29T20:31:22;6.73;;;3.90;;
3217;SDS011;1621;49.702;8.618;2022-07-29T20:33:49;6.37;;;4.00;;
3217;SDS011;1621;49.702;8.618;2022-07-29T20:36:15;6.00;;;4.10;;
3217;SDS011;1621;49.702;8.618;2022-07-29T20:38:42;6.33;;;4.07;;
3217;SDS011;1621;49.702;8.618;2022-07-29T20:41:08;5.50;;;4.50;;
3217;SDS011;1621;49.702;8.618;2022-07-29T20:43:34;6.20;;;4.13;;
3217;SDS011;1621;49.702;8.618;2022-07-29T20:46:00;6.97;;;4.77;;
3217;SDS011;1621;49.702;8.618;2022-07-29T20:48:28;6.37;;;4.70;;
3217;SDS011;1621;49.702;8.618;2022-07-29T20:50:54;7.60;;;4.30;;
3217;SDS011;1621;49.702;8.618;2022-07-29T20:53:20;5.83;;;4.53;;
3217;SDS011;1621;49.702;8.618;2022-07-29T20:55:47;5.97;;;4.60;;
3217;SDS011;1621;49.702;8.618;2022-07-29T20:58:13;4.73;;;4.23;;
3217;SDS011;1621;49.702;8.618;2022-07-29T21:00:39;8.70;;;4.77;;
3217;SDS011;1621;49.702;8.618;2022-07-29T21:03:06;5.63;;;4.07;;
3217;SDS011;1621;49.702;8.618;2022-07-29T21:05:34;5.10;;;4.33;;
3217;SDS011;1621;49.702;8.618;2022-07-29T21:08:01;6.20;;;4.60;;
3217;SDS011;1621;49.702;8.618;2022-07-29T21:10:27;6.17;;;4.60;;
3217;SDS011;1621;49.702;8.618;2022-07-29T21:12:54;5.80;;;4.57;;
3217;SDS011;1621;49.702;8.618;2022-07-29T21:15:20;6.33;;;4.10;;
3217;SDS011;1621;49.702;8.618;2022-07-29T21:17:47;10.37;;;4.90;;
3217;SDS011;1621;49.702;8.618;2022-07-29T21:20:16;5.03;;;3.90;;
3217;SDS011;1621;49.702;8.618;2022-07-29T21:22:44;6.40;;;5.00;;
3217;SDS011;1621;49.702;8.618;2022-07-29T21:25:10;9.57;;;4.83;;